• Join FlightAware (Why Join?)
  • Login
  • US Flag 
08:08PM EDT


 

Airport Tracker/Info


-or-


 

Live Flight TrackerFlight Track Log ✈ JST953 ✈ 05-Jul-2013 ✈ YBCS / CNS - YSSY / SYD

Flight Track Log - Related Links

Times and Time Zones

All times are in EDT time to prevent confusion due to time zone crossing. See the JST953 flight status page for this flight to view local times or setup timezone preferences in your user account.

Time Position Orientation Groundspeed Altitude Reporting Facility
EDT Latitude Longitude Course Direction KTS MPH feet Rate Location/Type
05:14PM -16.8967 145.7577 100° East 162 186 900  Level Aus ATC (RADAR)
05:14PM -16.9006 145.7796 100° East 175 201 2,600 2,400 Climbing Aus ATC (RADAR)
05:15PM -16.8808 145.7931 33° Northeast 166 191 3,300 1,020 Climbing Aus ATC (RADAR)
05:15PM -16.8470 145.8230 33° Northeast 239 275 3,900 1,080 Climbing FlightAware
05:16PM -16.8420 145.8410 74° East 256 295 4,400 2,520 Climbing FlightAware
05:16PM -16.8580 145.8730 118° Southeast 272 313 5,800 1,980 Climbing FlightAware
05:17PM -16.8930 145.8970 147° Southeast 314 361 6,400 1,680 Climbing FlightAware
05:17PM -16.9320 145.9190 152° Southeast 334 384 7,500 2,400 Climbing FlightAware
05:18PM -16.9660 145.9390 151° Southeast 341 392 8,600 2,160 Climbing FlightAware
05:18PM -17.0020 145.9610 150° Southeast 357 411 9,300 2,100 Climbing FlightAware
05:19PM -17.0680 146.0020 149° Southeast 369 425 11,100 2,280 Climbing FlightAware
05:19PM -17.1280 146.0390 149° Southeast 379 436 12,600 2,160 Climbing FlightAware
05:20PM -17.1950 146.0810 149° Southeast 389 448 14,200 2,100 Climbing FlightAware
05:21PM -17.2600 146.1210 150° Southeast 394 453 15,600 1,800 Climbing FlightAware
05:22PM -17.3210 146.1580 150° Southeast 408 470 16,600 1,500 Climbing FlightAware
05:22PM -17.3940 146.2030 150° Southeast 419 482 17,800 1,620 Climbing FlightAware
05:23PM -17.4650 146.2480 149° Southeast 429 494 18,900 1,620 Climbing FlightAware
05:24PM -17.5310 146.2880 150° Southeast 435 501 20,000 1,620 Climbing FlightAware
05:24PM -17.6096 146.3369 150° Southeast 437 503 21,200 1,560 Climbing Aus ATC (RADAR)
05:24PM -17.6130 146.3390 150° Southeast 442 509 21,200 1,620 Level FlightAware
05:25PM -17.6715 146.3752 150° Southeast 443 510 22,200 1,320 Climbing Aus ATC (RADAR)
05:25PM -17.6920 146.3880 150° Southeast 450 518 22,200 960 Level FlightAware
05:26PM -17.7710 146.4372 150° Southeast 454 522 23,100 1,200 Climbing Aus ATC (RADAR)
05:26PM -17.7900 146.4490 150° Southeast 461 531 23,300 1,680 Climbing FlightAware
05:27PM -17.8630 146.4940 150° Southeast 455 524 24,600 1,620 Climbing FlightAware
05:27PM -17.9450 146.5450 149° Southeast 457 526 25,600 1,140 Climbing FlightAware
05:28PM -18.0190 146.5910 149° Southeast 470 541 26,200 1,020 Climbing FlightAware
05:28PM -18.0184 146.5911 149° Southeast 460 529 26,300 300 Climbing Aus ATC (RADAR)
05:29PM -18.0851 146.6326 149° Southeast 477 549 26,400 120 Climbing Aus ATC (RADAR)
05:29PM -18.0940 146.6380 149° Southeast 489 563 26,400 660 Level FlightAware
05:29PM -18.1539 146.6753 149° Southeast 489 563 26,800 720 Climbing Aus ATC (RADAR)
05:30PM -18.1880 146.6970 149° Southeast 499 574 27,000 720 Climbing FlightAware
05:30PM -18.2700 146.7480 149° Southeast 505 581 27,500 900 Climbing FlightAware
05:31PM -18.3346 146.7889 149° Southeast 510 587 28,100 900 Climbing Aus ATC (RADAR)
05:31PM -18.3650 146.8020 149° Southeast 504 580 28,200 1,200 Climbing FlightAware
05:32PM -18.4450 146.8247 149° Southeast 496 571 29,100 1,500 Climbing Aus ATC (RADAR)
05:32PM -18.4540 146.8270 149° Southeast 495 570 29,200 840 Climbing FlightAware
05:32PM -18.5229 146.8458 149° Southeast 495 570 29,600 480 Climbing Aus ATC (RADAR)
05:32PM -18.5320 146.8470 149° Southeast 502 578 29,500 300 Descending FlightAware
05:33PM -18.6142 146.8701 149° Southeast 508 585 29,800 420 Climbing Aus ATC (RADAR)
05:33PM -18.6270 146.8730 149° Southeast 512 589 29,800 660 Level FlightAware
05:33PM -18.6949 146.8917 149° Southeast 512 589 30,200 660 Climbing Aus ATC (RADAR)
05:34PM -18.7220 146.8980 149° Southeast 514 592 30,300 1,020 Climbing FlightAware
05:34PM -18.8060 146.9200 166° South 512 589 31,000 1,020 Climbing FlightAware
05:35PM -18.8980 146.9450 166° South 513 590 31,600 1,080 Climbing FlightAware
05:36PM -19.0050 146.9730 166° South 505 581 32,600 1,320 Climbing FlightAware
05:36PM -19.0900 146.9960 166° South 497 572 33,500 1,380 Climbing FlightAware
05:37PM -19.1910 147.0230 166° South 484 557 34,600 1,080 Climbing FlightAware
05:38PM -19.2630 147.0420 166° South 476 548 35,000 660 Climbing FlightAware
05:38PM -19.2806 147.0482 166° South 473 544 35,100 120 Climbing Aus ATC (RADAR)
05:38PM -19.3439 147.0648 166° South 473 544 35,100 -180 Level Aus ATC (RADAR)
05:38PM -19.3720 147.0720 166° South 476 548 35,000 -180 Descending FlightAware
05:39PM -19.4380 147.0890 166° South 475 547 35,000  Level FlightAware
05:40PM -19.5340 147.1150 166° South 474 545 35,000  Level FlightAware
05:40PM -19.6190 147.1380 166° South 473 544 35,000  Level FlightAware
05:41PM -19.6920 147.1570 166° South 472 543 35,000  Level FlightAware
05:42PM -19.7860 147.1830 165° South 472 543 35,000  Level FlightAware
05:42PM -19.8750 147.2070 166° South 472 543 35,000  Level FlightAware
05:43PM -19.9510 147.2270 166° South 472 543 35,000 120 Level FlightAware
05:43PM -19.9511 147.2269 166° South 463 533 35,100 120 Climbing Aus ATC (RADAR)
05:44PM -20.0258 147.2463 166° South 467 537 35,100 -180 Level Aus ATC (RADAR)
05:44PM -20.0280 147.2480 166° South 462 532 35,000 120 Descending FlightAware
05:44PM -20.1200 147.2721 166° South 460 529 35,200 120 Climbing Aus ATC (RADAR)
05:44PM -20.1200 147.2730 166° South 466 536 35,100 -180 Descending FlightAware
05:45PM -20.2050 147.2960 166° South 461 531 35,100 -120 Level FlightAware
05:46PM -20.2980 147.3210 166° South 450 518 35,000 -120 Descending FlightAware
05:46PM -20.3790 147.3430 166° South 447 514 35,000  Level FlightAware
05:47PM -20.4720 147.3680 166° South 446 513 35,000  Level FlightAware
05:48PM -20.5420 147.3870 166° South 445 512 35,000  Level FlightAware
05:48PM -20.6250 147.4100 166° South 445 512 35,000 120 Level FlightAware
05:48PM -20.6317 147.4120 166° South 441 507 35,100 120 Climbing Aus ATC (RADAR)
05:49PM -20.7030 147.4315 166° South 444 511 35,100 -180 Level Aus ATC (RADAR)
05:49PM -20.7150 147.4350 166° South 445 512 35,000  Descending FlightAware
05:50PM -20.7850 147.4534 166° South 452 520 35,100  Climbing Aus ATC (RADAR)
05:50PM -20.7850 147.4540 166° South 446 513 35,000  Descending FlightAware
05:50PM -20.8556 147.4734 166° South 449 517 35,100  Climbing Aus ATC (RADAR)
05:50PM -20.8690 147.4770 166° South 446 513 35,000 -120 Descending FlightAware
05:51PM -20.9530 147.5000 166° South 446 513 35,000  Level FlightAware
05:52PM -21.0620 147.5300 166° South 446 513 35,000  Level FlightAware
05:53PM -21.1230 147.5480 165° South 446 513 35,000  Level FlightAware
05:53PM -21.1880 147.5660 165° South 446 513 35,000 120 Level FlightAware
05:53PM -21.2433 147.5796 165° South 450 518 35,100 120 Climbing Aus ATC (RADAR)
05:54PM -21.3048 147.5966 165° South 453 521 35,100 -180 Level Aus ATC (RADAR)
05:54PM -21.2710 147.5900 165° South 446 513 35,000 -180 Descending FlightAware
05:55PM -21.3320 147.6080 165° South 446 513 35,000  Level FlightAware
05:55PM -21.3890 147.6240 165° South 446 513 35,000  Level FlightAware
05:56PM -21.4720 147.6480 165° South 446 513 35,000  Level FlightAware
05:57PM -21.5330 147.6660 165° South 446 513 35,000  Level FlightAware
05:57PM -21.5940 147.6840 165° South 446 513 35,000 60 Level FlightAware
05:58PM -21.8192 147.7390 165° South 462 532 35,100  Climbing Aus ATC (RADAR)
05:58PM -21.6740 147.7060 165° South 446 513 35,000  Descending FlightAware
05:59PM -21.8908 147.7592 165° South 455 524 35,100  Climbing Aus ATC (RADAR)
05:59PM -21.8850 147.7570 165° South 461 531 35,000  Descending FlightAware
06:00PM -22.0151 147.7937 165° South 459 528 35,100  Climbing Aus ATC (RADAR)
06:00PM -21.9860 147.7850 165° South 461 531 35,000 -180 Descending FlightAware
06:01PM -22.1270 147.8240 166° South 459 528 35,000  Level FlightAware
06:01PM -22.2110 147.8470 166° South 458 527 35,000  Level FlightAware
06:02PM -22.2540 147.8590 166° South 458 527 35,000  Level FlightAware
06:03PM -22.3200 147.8770 166° South 458 527 35,000  Level FlightAware
06:03PM -22.4360 147.9100 165° South 459 528 35,000  Level FlightAware
06:04PM -22.5030 147.9290 165° South 459 528 35,000  Level FlightAware
06:05PM -22.5780 147.9500 166° South 462 532 35,000  Level FlightAware
06:05PM -22.6610 147.9730 166° South 465 535 35,000 60 Level FlightAware
06:06PM -22.7510 147.9980 166° South 464 534 35,100 60 Climbing FlightAware
06:07PM -22.8430 148.0240 165° South 462 532 35,100 -120 Level FlightAware
06:07PM -22.9330 148.0490 166° South 460 529 35,000 -120 Descending FlightAware
06:08PM -23.0030 148.0690 165° South 458 527 35,000 480 Level FlightAware
06:09PM -23.1082 148.0994 165° South 461 531 35,600 480 Climbing Aus ATC (RADAR)
06:09PM -23.0990 148.0960 165° South 464 534 35,400 420 Descending FlightAware
06:09PM -23.1880 148.1210 166° South 464 534 36,000 720 Climbing FlightAware
06:10PM -23.2650 148.1430 165° South 464 534 36,400 240 Climbing FlightAware
06:11PM -23.3460 148.1670 165° South 464 534 36,400 360 Level FlightAware
06:12PM -23.4310 148.1910 165° South 461 531 37,000 360 Climbing FlightAware
06:12PM -23.5400 148.2210 166° South 464 534 37,000  Level FlightAware
06:13PM -23.6280 148.2460 165° South 465 535 37,000  Level FlightAware
06:14PM -23.7230 148.2730 165° South 466 536 37,000 120 Level FlightAware
06:15PM -23.8561 148.3115 165° South 466 536 37,200  Climbing Aus ATC (RADAR)
06:15PM -23.8100 148.2980 165° South 466 536 37,000  Descending FlightAware
06:15PM -23.9292 148.3325 165° South 467 537 37,200  Climbing Aus ATC (RADAR)
06:15PM -23.9240 148.3310 165° South 467 537 37,000 -240 Descending FlightAware
06:16PM -24.0120 148.3560 165° South 467 537 37,000 120 Level FlightAware
06:17PM -24.1276 148.3895 165° South 464 534 37,200  Climbing Aus ATC (RADAR)
06:17PM -24.1070 148.3830 165° South 466 536 37,000  Descending FlightAware
06:18PM -24.2320 148.4193 165° South 465 535 37,200  Climbing Aus ATC (RADAR)
06:18PM -24.1790 148.4040 165° South 465 535 37,000 -360 Descending FlightAware
06:18PM -24.2570 148.4260 166° South 465 535 37,000 120 Level FlightAware
06:19PM -24.3981 148.4672 166° South 463 533 37,200  Climbing Aus ATC (RADAR)
06:19PM -24.3370 148.4490 166° South 464 534 37,000  Descending FlightAware
06:19PM -24.4706 148.4879 166° South 462 532 37,200  Climbing Aus ATC (RADAR)
06:20PM -24.4340 148.4770 166° South 463 533 37,000 -360 Descending FlightAware
06:20PM -24.4960 148.4950 165° South 462 532 37,000 180 Level FlightAware
06:21PM -24.6158 148.5301 165° South 469 540 37,200  Climbing Aus ATC (RADAR)
06:21PM -24.5900 148.5220 165° South 462 532 37,000 -240 Descending FlightAware
06:21PM -24.6830 148.5490 165° South 462 532 37,000 120 Level FlightAware
06:22PM -24.7915 148.5809 165° South 461 531 37,200  Climbing Aus ATC (RADAR)
06:22PM -24.7480 148.5680 165° South 463 533 37,000 -300 Descending FlightAware
06:23PM -24.8060 148.5850 165° South 463 533 37,000 120 Level FlightAware
06:24PM -24.9997 148.6414 165° South 465 535 37,200  Climbing Aus ATC (RADAR)
06:24PM -24.9650 148.6310 165° South 465 535 37,000 -300 Descending FlightAware
06:24PM -25.0070 148.6440 164° South 465 535 37,000  Level FlightAware
06:25PM -25.0730 148.6630 165° South 465 535 37,000  Level FlightAware
06:26PM -25.1570 148.6880 165° South 465 535 37,000  Level FlightAware
06:26PM -25.2210 148.7070 165° South 465 535 37,000 120 Level FlightAware
06:27PM -25.4296 148.7673 165° South 468 539 37,200  Climbing Aus ATC (RADAR)
06:27PM -25.3020 148.7310 165° South 465 535 37,000 -300 Descending FlightAware
06:28PM -25.3660 148.7500 165° South 465 535 37,000  Level FlightAware
06:28PM -25.4310 148.7690 165° South 465 535 37,000  Level FlightAware
06:29PM -25.4910 148.7870 165° South 465 535 37,000  Level FlightAware
06:30PM -25.5760 148.8120 165° South 465 535 37,000 120 Level FlightAware
06:30PM -25.8597 148.8938 165° South 467 537 37,200  Climbing Aus ATC (RADAR)
06:31PM -25.6840 148.8450 165° South 465 535 37,000 -240 Descending FlightAware
06:31PM -25.7470 148.8630 166° South 465 535 37,000 120 Level FlightAware
06:32PM -26.0683 148.9556 166° South 465 535 37,200  Climbing Aus ATC (RADAR)
06:32PM -25.8280 148.8880 166° South 465 535 37,000 -360 Descending FlightAware
06:33PM -25.8920 148.9070 165° South 465 535 37,000  Level FlightAware
06:33PM -25.9560 148.9260 165° South 465 535 37,000 120 Level FlightAware
06:34PM -26.3492 149.0388 165° South 465 535 37,200 120 Climbing Aus ATC (RADAR)
06:35PM -26.4222 149.0606 165° South 465 535 37,200  Level Aus ATC (RADAR)
06:36PM -26.5053 149.0856 165° South 463 533 37,200  Level Aus ATC (RADAR)
06:36PM -26.5661 149.1054 164° South 456 525 37,200  Level Aus ATC (RADAR)
06:37PM -26.6800 149.1464 162° South 464 534 37,200  Level Aus ATC (RADAR)
06:38PM -26.8047 149.1893 163° South 468 539 37,200  Level Aus ATC (RADAR)
06:39PM -26.8985 149.2216 163° South 469 540 37,200  Level Aus ATC (RADAR)
06:39PM -26.9607 149.2426 163° South 467 537 37,200 -120 Level Aus ATC (RADAR)
06:40PM -27.0334 149.2679 163° South 468 539 37,100 -120 Descending Aus ATC (RADAR)
06:40PM -27.1060 149.2930 163° South 467 537 37,100  Level Aus ATC (RADAR)
06:41PM -27.1786 149.3180 163° South 467 537 37,100  Level Aus ATC (RADAR)
06:42PM -27.2617 149.3464 163° South 467 537 37,100  Level Aus ATC (RADAR)
06:42PM -27.3352 149.3721 163° South 472 543 37,100  Level Aus ATC (RADAR)
06:43PM -27.4076 149.3967 163° South 468 539 37,100  Level Aus ATC (RADAR)
06:43PM -27.4813 149.4225 163° South 472 543 37,100  Level Aus ATC (RADAR)
06:44PM -27.5442 149.4444 163° South 472 543 37,100  Level Aus ATC (RADAR)
06:45PM -27.6177 149.4698 163° South 472 543 37,100  Level Aus ATC (RADAR)
06:45PM -27.6915 149.4960 163° South 475 547 37,100  Level Aus ATC (RADAR)
06:46PM -27.7766 149.5255 163° South 478 550 37,100 60 Level Aus ATC (RADAR)
06:46PM -27.8509 149.5512 163° South 477 549 37,200  Climbing Aus ATC (RADAR)
06:48PM -28.0001 149.6040 163° South 480 552 37,100 -60 Descending Aus ATC (RADAR)
06:49PM -28.1281 149.6492 163° South 479 551 37,100  Level Aus ATC (RADAR)
06:49PM -28.2242 149.6829 163° South 480 552 37,100  Level Aus ATC (RADAR)
06:50PM -28.3003 149.7038 166° South 482 555 37,100 60 Level Aus ATC (RADAR)
06:51PM -28.3973 149.7307 166° South 477 549 37,200  Climbing Aus ATC (RADAR)
06:52PM -28.5264 149.7677 166° South 474 545 37,200  Level Aus ATC (RADAR)
06:52PM -28.6232 149.7961 166° South 475 547 37,200 -120 Level Aus ATC (RADAR)
06:53PM -28.7411 149.8298 166° South 475 547 37,100 -60 Descending Aus ATC (RADAR)
06:54PM -28.8367 149.8582 165° South 471 542 37,100  Level Aus ATC (RADAR)
06:55PM -28.9117 149.8798 166° South 472 543 37,100  Level Aus ATC (RADAR)
06:55PM -28.9864 149.9022 165° South 474 545 37,100  Level Aus ATC (RADAR)
06:56PM -29.0719 149.9277 165° South 474 545 37,100  Level Aus ATC (RADAR)
06:56PM -29.1468 149.9506 165° South 474 545 37,100 -180 Level Aus ATC (RADAR)
06:57PM -29.1560 149.9530 165° South 481 554 37,000 -180 Descending FlightAware
06:57PM -29.2270 149.9740 166° South 482 555 37,000  Level FlightAware
06:58PM -29.3000 149.9970 166° South 482 555 37,000 120 Level FlightAware
06:58PM -29.3305 150.0052 166° South 479 551 37,100  Climbing Aus ATC (RADAR)
06:58PM -29.3660 150.0170 165° South 482 555 37,000 -120 Descending FlightAware
06:59PM -29.4320 150.0370 165° South 482 555 37,000 60 Level FlightAware
07:00PM -29.5810 150.0793 165° South 484 557 37,100  Climbing Aus ATC (RADAR)
07:00PM -29.5190 150.0640 165° South 482 555 37,000 -180 Descending FlightAware
07:00PM -29.5850 150.0850 165° South 482 555 37,000 60 Level FlightAware
07:01PM -29.7333 150.1245 165° South 483 556 37,100  Climbing Aus ATC (RADAR)
07:01PM -29.6750 150.1120 165° South 482 555 37,000 -120 Descending FlightAware
07:02PM -29.7450 150.1340 165° South 482 555 37,000  Level FlightAware
07:02PM -29.8120 150.1550 165° South 482 555 37,000 60 Level FlightAware
07:03PM -30.0180 150.2118 165° South 488 562 37,100  Climbing Aus ATC (RADAR)
07:03PM -29.9000 150.1820 165° South 482 555 37,000 -180 Descending FlightAware
07:04PM -29.9660 150.2020 165° South 482 555 37,000 60 Level FlightAware
07:04PM -30.1946 150.2646 165° South 488 562 37,100  Climbing Aus ATC (RADAR)
07:05PM -30.0540 150.2290 165° South 482 555 37,000 -180 Descending FlightAware
07:05PM -30.1200 150.2500 165° South 482 555 37,000 60 Level FlightAware
07:06PM -30.3827 150.3214 165° South 490 564 37,100  Climbing Aus ATC (RADAR)
07:06PM -30.1860 150.2700 165° South 482 555 37,000 -180 Descending FlightAware
07:07PM -30.2740 150.2980 165° South 482 555 37,000  Level FlightAware
07:08PM -30.6158 150.3921 165° South 492 566 37,100  Climbing Aus ATC (RADAR)
07:09PM -30.7492 150.4327 165° South 491 565 37,100  Level Aus ATC (RADAR)
07:09PM -30.8499 150.4637 165° South 494 568 37,100  Level Aus ATC (RADAR)
07:10PM -30.9282 150.4875 165° South 494 568 37,100  Level Aus ATC (RADAR)
07:10PM -31.0062 150.5115 165° South 493 567 37,100  Level Aus ATC (RADAR)
07:11PM -31.0953 150.5385 165° South 491 565 37,100  Level Aus ATC (RADAR)
07:12PM -31.1730 150.5628 165° South 491 565 37,100  Level Aus ATC (RADAR)
07:13PM -31.2950 150.6008 165° South 488 562 37,100 -120 Level Aus ATC (RADAR)
07:13PM -31.3540 150.6190 165° South 498 573 37,000  Descending FlightAware
07:14PM -31.4289 150.6426 165° South 491 565 37,100  Climbing Aus ATC (RADAR)
07:14PM -31.4450 150.6470 165° South 499 574 37,000  Descending FlightAware
07:14PM -31.5266 150.6723 165° South 500 575 37,100  Climbing Aus ATC (RADAR)
07:14PM -31.5340 150.6740 165° South 499 574 37,000  Descending FlightAware
07:15PM -31.6049 150.6963 165° South 500 575 37,100  Climbing Aus ATC (RADAR)
07:15PM -31.6340 150.7050 165° South 500 575 37,000 -120 Descending FlightAware
07:16PM -31.7210 150.7330 165° South 501 577 37,000 120 Level FlightAware
07:16PM -31.7283 150.7350 165° South 502 578 37,100  Climbing Aus ATC (RADAR)
07:17PM -31.8270 150.7660 165° South 496 571 37,000 -480 Descending FlightAware
07:17PM -31.9170 150.7940 165° South 503 579 36,500 -1,140 Descending FlightAware
07:18PM -32.0190 150.8260 165° South 497 572 35,400 -2,100 Descending FlightAware
07:19PM -32.0927 150.8422 165° South 496 571 33,900 -2,880 Descending Aus ATC (RADAR)
07:19PM -32.1100 150.8440 165° South 502 578 33,500 -2,700 Descending FlightAware
07:19PM -32.2110 150.8620 171° South 504 580 31,500 -2,400 Descending FlightAware
07:20PM -32.3030 150.8780 172° South 489 563 30,100 -2,040 Descending FlightAware
07:21PM -32.3957 150.8958 172° South 482 555 28,800 -1,800 Descending Aus ATC (RADAR)
07:21PM -32.3940 150.8950 172° South 474 545 28,900 -2,700 Climbing FlightAware
07:22PM -32.4930 150.9123 172° South 475 547 26,800 -2,700 Descending Aus ATC (RADAR)
07:22PM -32.4910 150.9110 172° South 469 540 26,900 -2,100 Climbing FlightAware
07:22PM -32.5692 150.9262 172° South 475 547 25,600 -2,100 Descending Aus ATC (RADAR)
07:22PM -32.5800 150.9270 172° South 472 543 25,500 -1,980 Descending FlightAware
07:23PM -32.6650 150.9420 172° South 468 539 24,100 -2,220 Descending FlightAware
07:23PM -32.6766 150.9452 172° South 470 541 23,900 -2,100 Descending Aus ATC (RADAR)
07:24PM -32.7530 150.9580 171° South 456 525 22,700 -2,100 Descending FlightAware
07:24PM -32.8370 150.9730 171° South 453 521 21,300 -2,220 Descending FlightAware
07:25PM -32.9300 150.9890 172° South 457 526 19,600 -2,100 Descending FlightAware
07:26PM -33.0040 151.0020 172° South 442 509 18,500 -1,740 Descending FlightAware
07:26PM -33.0860 151.0170 171° South 421 484 17,400 -1,920 Descending FlightAware
07:27PM -33.1630 151.0310 171° South 405 466 16,000 -2,340 Descending FlightAware
07:27PM -33.2220 151.0420 171° South 406 467 14,500 -2,160 Descending FlightAware
07:28PM -33.3009 151.0561 171° South 400 460 13,400 -1,920 Descending Aus ATC (RADAR)
07:28PM -33.3200 151.0600 171° South 381 438 13,000 -1,800 Descending FlightAware
07:29PM -33.3920 151.0740 171° South 341 392 11,800 -1,680 Descending FlightAware
07:30PM -33.4480 151.0850 171° South 340 391 10,800 -1,140 Descending FlightAware
07:30PM -33.5150 151.0980 171° South 315 362 10,300 -780 Descending FlightAware
07:31PM -33.5650 151.1070 171° South 300 345 9,800 -1,020 Descending FlightAware
07:31PM -33.5990 151.1140 170° South 306 352 9,300 -960 Descending FlightAware
07:32PM -33.6270 151.1190 172° South 312 359 9,100 -300 Descending FlightAware
07:32PM -33.6640 151.1260 171° South 310 357 9,100  Level FlightAware
07:33PM -33.7030 151.1340 170° South 283 326 9,100  Level FlightAware
07:33PM -33.7240 151.1390 169° South 280 322 9,100  Level FlightAware
07:33PM -33.7600 151.1450 172° South 280 322 9,100  Level FlightAware
07:34PM -33.7770 151.1480 172° South 280 322 9,100  Level FlightAware
07:34PM -33.8120 151.1540 172° South 275 316 9,100  Level FlightAware
07:34PM -33.8340 151.1480 193° South 261 300 9,100  Level FlightAware
07:35PM -33.8660 151.1390 193° South 259 298 9,100 -540 Level FlightAware
07:35PM -33.9000 151.1290 194° South 256 295 8,600 -1,140 Descending FlightAware
07:36PM -33.9350 151.1190 193° South 253 291 8,000 -1,380 Descending FlightAware
07:36PM -33.9630 151.1120 192° South 250 288 7,400 -1,380 Descending FlightAware
07:37PM -33.9960 151.1020 194° South 246 283 6,700 -1,200 Descending FlightAware
07:37PM -34.0270 151.0930 194° South 242 278 6,200 -1,260 Descending FlightAware
07:38PM -34.0570 151.0840 194° South 239 275 5,600 -1,140 Descending FlightAware
07:38PM -34.0760 151.0790 192° South 236 272 5,400 -1,020 Descending FlightAware
07:38PM -34.0960 151.0810 175° South 254 292 5,000 -1,080 Descending FlightAware
07:39PM -34.1240 151.0880 168° South 247 284 4,700 -600 Descending FlightAware
07:39PM -34.1560 151.0970 167° South 231 266 4,500 -420 Descending FlightAware
07:39PM -34.1710 151.1050 156° South 243 280 4,400 -720 Descending FlightAware
07:40PM -34.1790 151.1150 134° Southeast 252 290 4,200 -960 Descending FlightAware
07:40PM -34.1850 151.1340 111° Southeast 251 289 4,000 -600 Descending FlightAware
07:40PM -34.1770 151.1870 80° East 237 273 3,700 -480 Descending FlightAware
07:41PM -34.1690 151.1970 46° Northeast 225 259 3,600 -480 Descending FlightAware
07:41PM -34.1560 151.2040 24° Northeast 207 238 3,500 -300 Descending FlightAware
07:41PM -34.1320 151.2150 21° North 178 205 3,400 -540 Descending FlightAware
07:42PM -34.1020 151.2160 North 151 174 2,900 -840 Descending FlightAware
07:43PM -34.0820 151.2110 348° North 147 169 2,500 -900 Descending FlightAware
07:43PM -34.0660 151.2070 348° North 140 161 2,100 -780 Descending FlightAware
07:43PM -34.0480 151.2020 347° North 131 151 1,800 -720 Descending FlightAware
07:44PM -34.0300 151.1980 350° North 129 148 1,400 -780 Descending FlightAware
07:44PM -34.0160 151.1940 347° North 128 147 1,100 -600 Descending FlightAware
07:45PM -34.0010 151.1900 348° North 128 147 900 -600 Descending FlightAware
07:45PM -33.9880 151.1870 349° North 129 148 600 -660 Descending FlightAware
07:46PM -33.9750 151.1830 346° North 129 148 400 -540 Descending FlightAware
07:46PM -33.9550 151.1780 348° North 105 121 -780 Descending FlightAware
07:47PM -33.9470 151.1760 348° North 39 45  Level FlightAware
07:47PM -33.9430 151.1770 12° North 14 16  Level FlightAware
07:48PM -33.9410 151.1770 360° North 20 23  Level FlightAware
07:48PM -33.9380 151.1760 345° North 21 24  Level FlightAware
07:49PM -33.9360 151.1750 337° Northwest 18 21  Level FlightAware
07:49PM -33.9350 151.1760 40° Northeast 9 10  Level FlightAware
07:52PM -33.9460 151.1771 225° Southwest  Level FlightAware Approximate